Main page
METAR-TAF:

METAR-TAF

Airports :

Chlef International Airport

Chlef, Algeria

latitude: 36-13N, longitude: 001-20E, elevation: 143 m

Current weather observation

The report was made 35 minutes ago, at 12:00 UTC
Wind 5 kt from the South/Southwest
Temperature 27°C
Humidity 32%
Pressure 1016 hPa
Visibility 10 km or more
Few clouds at a height of 2600 ft
Scattered clouds at a height of 23300 ft

METAR: DAOI 211200Z 20005KT 9999 FEW026 SCT233 27/09 Q1016

Time: 13:35 (12:35 UTC)

Forecast

The report was made 1 hour and 35 minutes ago, at 11:00 UTC
Forecast valid from 21 at 12 UTC to 22 at 12 UTC
Wind 2 kt from variable directions
Visibility 10 km or more
Few clouds at a height of 2600 ft
Scattered clouds at a height of 23300 ft
Becoming
from 21 at 14 UTC to 21 at 15 UTC
Wind 10 kt from the Northwest
Becoming
from 21 at 20 UTC to 21 at 23 UTC
Wind 2 kt from variable directions

TAF: DAOI 211100Z 2112/2212 VRB02KT 9999 FEW026 SCT233 BECMG 2114/2115 32010KT BECMG 2120/2123 VRB02KT

Weather observations and forecasts of more than 4000 airports (METAR and TAF reports).

The available stations are represented by yellow and red dots on the map.

Hover mouse over dot to see the name of the station.

Then click to see weather observations and forecasts.

To change the map : click on the green buttons with a black cross to zoom in, on the green button with a dash to zoom out, or on the green arrows for adjacent maps.


METAR-TAF: